Flugplatz Husum-Schwesing

Für EDXJ sind keine METAR/TAF Berichte vorhanden.
Es werden die Flugwettermeldungen vom Flugplatz Schleswig Airport in 25 km Entfernung angezeigt.

Bericht für ETNS

vom 28.09. um 23:20 UTC

Wind 5 kt aus 110°

Sichtweite 6000 m

Temperatur 11.0°C

Taupunkt 9.0°C

Luftfeuchtigkeit 87%

Luftdruck 1019 hPa

ETNS 282320Z AUTO 11005KT 6000 // ////// 11/09 Q1019 ///
Keine Prognose (TAF) verfügbar.
Impressum